Latest Coastal Weather Observations for Port Kembla Harbour

IDN60701

Issued at 9:25 am EDT Thursday 23 October 2014 (issued every 10 minutes, with the page automatically refreshed every 10 minutes)

About coastal observations | Map of coastal stations | Coastal observations for NSW | Marine services | Other Formats
Station Details ID: 068253 Name: PORT KEMBLA NTC AWS Lat: -34.47 Lon: 150.91 Height: 0.0 m
Data from the previous 72 hours. | See also: Recent months for locations in New South Wales
Date/Time
EDT
Temp

°C
Wind Pressure Rain
since 9am
mm
Weather Cloud Vis
km
Sea
Height
m
Swell
Dir
 
Speed
knots
Gust
knots
hPa Trend Height
m
Period
s
Dir
23/09:00am 18.6 SE 3 5 1017.0 - - - - - - - - -
23/08:30am 18.4 ESE 2 3 1016.9 - - - - - - - - -
23/08:00am 18.6 ESE 2 3 1016.8 - - - - - - - - -
23/07:30am 17.9 SSW 2 3 1016.7 - - - - - - - - -
23/07:00am 16.5 SW 1 2 1016.7 - - - - - - - - -
23/06:30am 16.9 SSW 1 2 1016.6 - - - - - - - - -
23/06:00am 17.4 NW 2 3 1016.3 - - - - - - - - -
23/05:30am 17.8 NNE 6 8 1015.9 - - - - - - - - -
23/05:00am 17.8 NNE 6 8 1015.8 - - - - - - - - -
23/04:30am 17.7 NNE 6 7 1016.1 - - - - - - - - -
23/04:00am 17.8 NNE 6 9 1016.1 - - - - - - - - -
23/03:30am 17.7 NNE 5 7 1016.5 - - - - - - - - -
23/03:00am 17.8 NNE 7 9 1016.8 - - - - - - - - -
23/02:30am 17.7 N 6 8 1017.1 - - - - - - - - -
23/02:00am 17.6 N 5 9 1017.5 - - - - - - - - -
23/01:30am 17.6 NNE 6 8 1018.0 - - - - - - - - -
23/01:00am 17.6 N 6 7 1018.4 - - - - - - - - -
23/12:30am 17.6 N 5 7 1018.9 - - - - - - - - -
23/12:00am 17.3 N 5 6 1019.3 - - - - - - - - -
 
Date/Time
EDT
Temp

°C
Wind Pressure Rain
since 9am
mm
Weather Cloud Vis
km
Sea
Height
m
Swell
Dir
 
Speed
knots
Gust
knots
hPa Trend Height
m
Period
s
Dir
22/11:30pm 17.4 N 4 6 1019.5 - - - - - - - - -
22/11:00pm 17.8 N 4 6 1019.7 - - - - - - - - -
22/10:30pm 17.9 N 4 5 1020.0 - - - - - - - - -
22/10:00pm 18.1 N 6 8 1020.0 - - - - - - - - -
22/09:30pm 17.9 N 5 8 1019.9 - - - - - - - - -
22/09:00pm 18.2 NNE 8 11 1019.8 - - - - - - - - -
22/08:30pm 18.3 NNE 11 14 1019.5 - - - - - - - - -
22/08:00pm 18.4 NNE 15 20 1019.2 - - - - - - - - -
22/07:30pm 18.4 NNE 17 21 1019.0 - - - - - - - - -
22/07:00pm 18.4 NE 18 22 1018.9 - - - - - - - - -
22/06:30pm 18.5 NNE 17 22 1019.0 - - - - - - - - -
22/06:00pm 18.4 NE 17 21 1019.1 - - - - - - - - -
22/05:30pm 18.5 NE 18 24 1019.3 - - - - - - - - -
22/05:00pm 18.5 NE 17 23 1019.5 - - - - - - - - -
22/04:30pm 18.6 NE 18 23 1019.7 - - - - - - - - -
22/04:00pm 18.5 NE 16 22 1020.0 - - - - - - - - -
22/03:30pm 18.4 NE 17 22 1020.4 - - - - - - - - -
22/03:00pm 18.3 NE 17 23 1020.8 - - - - - - - - -
22/02:30pm 18.2 NE 16 22 1021.3 - - - - - - - - -
22/02:00pm 18.2 NE 16 22 1021.9 - - - - - - - - -
22/01:30pm 18.1 NE 17 23 1022.3 - - - - - - - - -
22/01:00pm 18.1 NE 14 22 1023.0 - - - - - - - - -
22/12:30pm 18.6 NE 14 18 1023.5 - - - - - - - - -
22/12:00pm 18.5 NE 13 18 1024.2 - - - - - - - - -
22/11:30am 18.2 NNE 15 20 1024.8 - - - - - - - - -
22/11:00am 18.0 NNE 12 16 1025.3 - - - - - - - - -
22/10:30am 17.9 NNE 11 15 1025.6 - - - - - - - - -
22/10:00am 17.8 N 12 18 1026.0 - - - - - - - - -
22/09:30am 17.2 NNE 11 15 1026.1 - - - - - - - - -
22/09:00am 17.2 N 12 15 1026.4 - - - - - - - - -
22/08:30am 16.7 N 10 14 1026.5 - - - - - - - - -
22/08:00am 16.2 NNW 10 14 1026.6 - - - - - - - - -
22/07:30am 16.0 NNW 9 12 1026.6 - - - - - - - - -
22/07:00am 15.5 NNW 6 8 1026.7 - - - - - - - - -
22/06:30am 15.7 NNW 7 10 1026.6 - - - - - - - - -
22/06:00am 15.4 NNW 6 8 1026.6 - - - - - - - - -
22/05:30am 15.5 NNW 5 6 1026.5 - - - - - - - - -
22/05:00am 15.8 N 7 11 1026.6 - - - - - - - - -
22/04:30am 15.8 NNE 9 12 1026.8 - - - - - - - - -
22/04:00am 15.4 NNW 5 8 1027.1 - - - - - - - - -
22/03:30am 15.4 NNW 5 8 1027.4 - - - - - - - - -
22/03:00am 15.4 NNW 6 8 1027.7 - - - - - - - - -
22/02:30am 16.0 NNE 12 16 1028.1 - - - - - - - - -
22/02:00am 15.7 NNW 7 10 1028.4 - - - - - - - - -
22/01:30am 16.4 NE 12 16 1028.8 - - - - - - - - -
22/01:00am 16.4 N 5 7 1029.4 - - - - - - - - -
22/12:30am 16.3 N 5 8 1029.9 - - - - - - - - -
22/12:00am 16.3 N 7 11 1030.2 - - - - - - - - -
 
Date/Time
EDT
Temp

°C
Wind Pressure Rain
since 9am
mm
Weather Cloud Vis
km
Sea
Height
m
Swell
Dir
 
Speed
knots
Gust
knots
hPa Trend Height
m
Period
s
Dir
21/11:30pm 16.2 N 6 9 1030.4 - - - - - - - - -
21/11:00pm 16.5 NNE 12 17 1030.6 - - - - - - - - -
21/10:30pm 16.9 NNE 11 15 1030.7 - - - - - - - - -
21/10:00pm 17.0 NE 9 13 1030.7 - - - - - - - - -
21/09:30pm 17.0 NE 9 13 1030.7 - - - - - - - - -
21/09:00pm 17.1 NE 8 12 1030.6 - - - - - - - - -
21/08:30pm 17.2 NE 7 11 1030.4 - - - - - - - - -
21/08:00pm 17.1 NE 7 10 1030.2 - - - - - - - - -
21/07:30pm 17.0 NE 7 10 1030.0 - - - - - - - - -
21/07:00pm 17.0 NE 6 9 1029.8 - - - - - - - - -
21/06:30pm 16.8 ENE 6 10 1029.8 - - - - - - - - -
21/06:00pm 17.0 NE 6 9 1029.7 - - - - - - - - -
21/05:30pm 17.0 NE 5 7 1029.8 - - - - - - - - -
21/05:00pm 16.9 NE 5 8 1029.9 - - - - - - - - -
21/04:30pm 16.9 ENE 6 9 1029.8 - - - - - - - - -
21/04:00pm 16.8 ENE 5 9 1030.0 - - - - - - - - -
21/03:30pm 16.7 ENE 6 10 1030.3 - - - - - - - - -
21/03:00pm 16.8 NE 6 9 1030.6 - - - - - - - - -
21/02:30pm 16.6 ENE 7 10 1030.8 - - - - - - - - -
21/02:00pm 16.7 NE 6 9 1031.3 - - - - - - - - -
21/01:30pm 16.6 ENE 5 7 1031.7 - - - - - - - - -
21/01:00pm 16.5 ENE 5 8 1032.1 - - - - - - - - -
21/12:30pm 16.3 ENE 5 9 1032.3 - - - - - - - - -
21/12:00pm 16.4 ENE 3 9 1032.6 - - - - - - - - -
21/11:30am 15.9 NE 3 6 1032.8 - - - - - - - - -
21/11:00am 16.1 NW 2 6 1032.9 - - - - - - - - -
21/10:30am 15.9 WNW 2 5 1032.9 - - - - - - - - -
21/10:00am 15.5 NW 3 4 1032.9 - - - - - - - - -
21/09:30am 15.4 WSW 5 7 1032.7 - - - - - - - - -
21/09:00am 15.2 W 6 8 1032.6 - - - - - - - - -
21/08:30am 15.1 SSW 2 5 1032.3 - - - - - - - - -
21/08:00am 14.5 W 5 6 1032.1 - - - - - - - - -
21/07:30am 15.2 SE 1 3 1031.8 - - - - - - - - -
21/07:00am 14.9 NNE 3 7 1031.5 - - - - - - - - -
21/06:30am 14.2 W 6 7 1031.3 - - - - - - - - -
21/06:00am 14.3 WSW 4 5 1031.0 - - - - - - - - -
21/05:30am 14.2 W 6 7 1030.9 - - - - - - - - -
21/05:00am 14.1 W 5 6 1030.9 - - - - - - - - -
21/04:30am 14.0 W 4 5 1030.8 - - - - - - - - -
21/04:00am 14.0 WSW 6 9 1030.9 - - - - - - - - -
21/03:30am 13.8 W 6 7 1031.0 - - - - - - - - -
21/03:00am 13.5 W 6 7 1031.2 - - - - - - - - -
21/02:30am 13.9 WSW 7 9 1031.3 - - - - - - - - -
21/02:00am 14.7 SW 4 8 1031.5 - - - - - - - - -
21/01:30am 14.6 SW 5 9 1031.6 - - - - - - - - -
21/01:00am 14.5 SSW 4 8 1031.7 - - - - - - - - -
21/12:30am 15.0 S 5 9 1031.9 - - - - - - - - -
21/12:00am 15.5 SSE 5 9 1031.9 - - - - - - - - -
 
Date/Time
EDT
Temp

°C
Wind Pressure Rain
since 9am
mm
Weather Cloud Vis
km
Sea
Height
m
Swell
Dir
 
Speed
knots
Gust
knots
hPa Trend Height
m
Period
s
Dir
20/11:30pm 15.7 SSE 7 13 1032.0 - - - - - - - - -
20/11:00pm 16.1 SSE 5 10 1031.9 - - - - - - - - -
20/10:30pm 16.0 S 5 9 1031.8 - - - - - - - - -
20/10:00pm 16.1 SSE 7 12 1031.9 - - - - - - - - -
20/09:30pm 16.5 S 6 11 1031.7 - - - - - - - - -
20/09:00pm 16.6 S 4 8 1031.6 - - - - - - - - -
20/08:30pm 16.7 S 4 9 1031.4 - - - - - - - - -

Other Formats:

Comma delimited format used in spreadsheet applications
http://www.bom.gov.au/fwo/IDN60701/IDN60701.95745.axf

JavaScript Object Notation format (JSON) in row-major order
http://www.bom.gov.au/fwo/IDN60701/IDN60701.95745.json